sensor_id;sensor_type;location;lat;lon;timestamp;pressure;altitude;pressure_sealevel;temperature;humidity
39449;BME280;25151;45.566;9.382;2023-02-03T00:02:17;100518.75;;;19.38;52.91
39449;BME280;25151;45.566;9.382;2023-02-03T00:05:17;100521.97;;;19.37;52.72
39449;BME280;25151;45.566;9.382;2023-02-03T00:08:18;100523.16;;;19.36;52.81
39449;BME280;25151;45.566;9.382;2023-02-03T00:11:19;100524.78;;;19.37;52.86
39449;BME280;25151;45.566;9.382;2023-02-03T00:14:19;100548.78;;;19.34;52.80
39449;BME280;25151;45.566;9.382;2023-02-03T00:17:21;100548.00;;;19.34;52.78
39449;BME280;25151;45.566;9.382;2023-02-03T00:20:22;100540.81;;;19.33;52.85
39449;BME280;25151;45.566;9.382;2023-02-03T00:23:23;100546.41;;;19.33;52.74
39449;BME280;25151;45.566;9.382;2023-02-03T00:26:25;100541.22;;;19.31;52.70
39449;BME280;25151;45.566;9.382;2023-02-03T00:29:27;100536.06;;;19.30;52.75
39449;BME280;25151;45.566;9.382;2023-02-03T00:32:28;100546.47;;;19.29;52.80
39449;BME280;25151;45.566;9.382;2023-02-03T00:35:29;100538.47;;;19.28;52.83
39449;BME280;25151;45.566;9.382;2023-02-03T00:38:30;100534.53;;;19.25;52.63
39449;BME280;25151;45.566;9.382;2023-02-03T00:41:31;100544.06;;;19.28;52.77
39449;BME280;25151;45.566;9.382;2023-02-03T00:44:31;100541.72;;;19.26;52.88
39449;BME280;25151;45.566;9.382;2023-02-03T00:47:32;100544.94;;;19.25;52.80
39449;BME280;25151;45.566;9.382;2023-02-03T00:50:32;100536.56;;;19.25;52.60
39449;BME280;25151;45.566;9.382;2023-02-03T00:53:33;100545.72;;;19.25;52.72
39449;BME280;25151;45.566;9.382;2023-02-03T00:56:34;100537.75;;;19.24;52.70
39449;BME280;25151;45.566;9.382;2023-02-03T00:59:35;100541.75;;;19.23;52.79
39449;BME280;25151;45.566;9.382;2023-02-03T01:02:35;100546.56;;;19.22;52.71
39449;BME280;25151;45.566;9.382;2023-02-03T01:05:36;100535.44;;;19.19;52.57
39449;BME280;25151;45.566;9.382;2023-02-03T01:08:37;100540.19;;;19.22;52.91
39449;BME280;25151;45.566;9.382;2023-02-03T01:11:37;100539.41;;;19.21;52.96
39449;BME280;25151;45.566;9.382;2023-02-03T01:14:38;100539.44;;;19.17;52.79
39449;BME280;25151;45.566;9.382;2023-02-03T01:17:39;100539.44;;;19.17;52.79
39449;BME280;25151;45.566;9.382;2023-02-03T01:20:39;100537.06;;;19.16;52.54
39449;BME280;25151;45.566;9.382;2023-02-03T01:23:40;100534.69;;;19.14;52.73
39449;BME280;25151;45.566;9.382;2023-02-03T01:26:41;100542.66;;;19.16;52.76
39449;BME280;25151;45.566;9.382;2023-02-03T01:29:42;100547.47;;;19.15;52.53
39449;BME280;25151;45.566;9.382;2023-02-03T01:32:42;100555.84;;;19.15;52.66
39449;BME280;25151;45.566;9.382;2023-02-03T01:35:43;100552.25;;;19.15;52.67
39449;BME280;25151;45.566;9.382;2023-02-03T01:38:44;100557.06;;;19.14;52.80
39449;BME280;25151;45.566;9.382;2023-02-03T01:41:45;100550.31;;;19.12;52.66
39449;BME280;25151;45.566;9.382;2023-02-03T01:44:49;100549.13;;;19.13;52.71
39449;BME280;25151;45.566;9.382;2023-02-03T01:47:54;100548.31;;;19.12;52.68
39449;BME280;25151;45.566;9.382;2023-02-03T01:51:01;100551.53;;;19.11;52.83
39449;BME280;25151;45.566;9.382;2023-02-03T01:54:04;100557.13;;;19.11;52.82
39449;BME280;25151;45.566;9.382;2023-02-03T01:57:21;100554.75;;;19.09;52.83
39449;BME280;25151;45.566;9.382;2023-02-03T02:00:22;100549.16;;;19.09;52.75
39449;BME280;25151;45.566;9.382;2023-02-03T02:03:30;100558.72;;;19.08;52.68
39449;BME280;25151;45.566;9.382;2023-02-03T02:06:32;100550.00;;;19.06;52.65
39449;BME280;25151;45.566;9.382;2023-02-03T02:09:33;100543.63;;;19.06;52.54
39449;BME280;25151;45.566;9.382;2023-02-03T02:12:34;100538.03;;;19.06;52.57
39449;BME280;25151;45.566;9.382;2023-02-03T02:22:59;100545.97;;;19.07;52.63
39449;BME280;25151;45.566;9.382;2023-02-03T02:26:27;100554.38;;;19.07;52.77
39449;BME280;25151;45.566;9.382;2023-02-03T02:36:26;100551.22;;;19.05;52.60
39449;BME280;25151;45.566;9.382;2023-02-03T02:39:46;100549.63;;;19.04;52.69
39449;BME280;25151;45.566;9.382;2023-02-03T02:43:03;100547.25;;;19.03;52.71
39449;BME280;25151;45.566;9.382;2023-02-03T02:46:36;100539.66;;;19.03;52.72
39449;BME280;25151;45.566;9.382;2023-02-03T02:49:58;100537.28;;;19.02;52.61
39449;BME280;25151;45.566;9.382;2023-02-03T02:53:02;100539.28;;;19.01;52.78
39449;BME280;25151;45.566;9.382;2023-02-03T02:56:06;100539.28;;;19.01;52.64
39449;BME280;25151;45.566;9.382;2023-02-03T02:59:09;100538.50;;;19.01;52.78
39449;BME280;25151;45.566;9.382;2023-02-03T03:02:10;100546.06;;;19.00;52.64
39449;BME280;25151;45.566;9.382;2023-02-03T03:05:11;100554.09;;;18.98;52.67
39449;BME280;25151;45.566;9.382;2023-02-03T03:08:13;100554.91;;;18.99;52.65
39449;BME280;25151;45.566;9.382;2023-02-03T03:11:15;100559.69;;;18.98;52.68
39449;BME280;25151;45.566;9.382;2023-02-03T03:14:19;100555.72;;;18.96;52.66
39449;BME280;25151;45.566;9.382;2023-02-03T03:17:25;100569.28;;;18.97;52.68
39449;BME280;25151;45.566;9.382;2023-02-03T03:20:28;100582.06;;;18.98;52.62
39449;BME280;25151;45.566;9.382;2023-02-03T03:23:37;100569.28;;;18.97;52.77
39449;BME280;25151;45.566;9.382;2023-02-03T03:26:43;100574.09;;;18.97;52.63
39449;BME280;25151;45.566;9.382;2023-02-03T03:29:50;100570.50;;;18.96;52.73
39449;BME280;25151;45.566;9.382;2023-02-03T03:32:52;100570.91;;;18.95;52.72
39449;BME280;25151;45.566;9.382;2023-02-03T03:36:23;100579.69;;;18.97;52.58
39449;BME280;25151;45.566;9.382;2023-02-03T03:39:44;100573.28;;;18.96;52.67
39449;BME280;25151;45.566;9.382;2023-02-03T03:42:50;100571.72;;;18.95;52.69
39449;BME280;25151;45.566;9.382;2023-02-03T03:46:02;100565.34;;;18.95;52.50
39449;BME280;25151;45.566;9.382;2023-02-03T03:49:08;100567.75;;;18.92;52.81
39449;BME280;25151;45.566;9.382;2023-02-03T03:52:14;100578.13;;;18.92;52.44
39449;BME280;25151;45.566;9.382;2023-02-03T03:55:17;100585.72;;;18.91;52.61
39449;BME280;25151;45.566;9.382;2023-02-03T03:58:30;100589.31;;;18.92;52.70
39449;BME280;25151;45.566;9.382;2023-02-03T04:01:31;100597.69;;;18.92;52.55
39449;BME280;25151;45.566;9.382;2023-02-03T04:04:34;100593.31;;;18.91;52.62
39449;BME280;25151;45.566;9.382;2023-02-03T04:07:54;100592.53;;;18.90;52.64
39449;BME280;25151;45.566;9.382;2023-02-03T04:10:54;100584.59;;;18.89;52.65
39449;BME280;25151;45.566;9.382;2023-02-03T04:13:55;100586.56;;;18.88;52.71
39449;BME280;25151;45.566;9.382;2023-02-03T04:16:56;100600.53;;;18.88;52.60
39449;BME280;25151;45.566;9.382;2023-02-03T04:19:57;100597.34;;;18.90;52.55
39449;BME280;25151;45.566;9.382;2023-02-03T04:22:59;100589.34;;;18.88;52.53
39449;BME280;25151;45.566;9.382;2023-02-03T04:26:00;100594.94;;;18.88;52.71
39449;BME280;25151;45.566;9.382;2023-02-03T04:29:01;100596.94;;;18.88;52.56
39449;BME280;25151;45.566;9.382;2023-02-03T04:32:02;100595.00;;;18.85;52.52
39449;BME280;25151;45.566;9.382;2023-02-03T04:35:03;100595.38;;;18.87;52.57
39449;BME280;25151;45.566;9.382;2023-02-03T04:38:04;100579.81;;;18.86;52.67
39449;BME280;25151;45.566;9.382;2023-02-03T04:41:05;100571.44;;;18.86;52.73
39449;BME280;25151;45.566;9.382;2023-02-03T04:44:05;100567.06;;;18.85;52.67
39449;BME280;25151;45.566;9.382;2023-02-03T04:47:06;100562.66;;;18.84;52.32
39449;BME280;25151;45.566;9.382;2023-02-03T04:50:07;100566.69;;;18.83;52.58
39449;BME280;25151;45.566;9.382;2023-02-03T04:53:09;100575.06;;;18.83;52.54
39449;BME280;25151;45.566;9.382;2023-02-03T04:56:10;100568.25;;;18.84;52.50
39449;BME280;25151;45.566;9.382;2023-02-03T04:59:10;100576.28;;;18.82;52.66
39449;BME280;25151;45.566;9.382;2023-02-03T05:02:11;100575.06;;;18.83;52.44
39449;BME280;25151;45.566;9.382;2023-02-03T05:05:12;100579.91;;;18.79;52.53
39449;BME280;25151;45.566;9.382;2023-02-03T05:08:14;100589.47;;;18.81;52.54
39449;BME280;25151;45.566;9.382;2023-02-03T05:11:15;100592.66;;;18.80;52.59
39449;BME280;25151;45.566;9.382;2023-02-03T05:14:15;100577.50;;;18.81;52.55
39449;BME280;25151;45.566;9.382;2023-02-03T05:17:16;100577.50;;;18.81;52.71
39449;BME280;25151;45.566;9.382;2023-02-03T05:20:17;100573.09;;;18.80;52.46
39449;BME280;25151;45.566;9.382;2023-02-03T05:23:17;100568.72;;;18.79;52.67
39449;BME280;25151;45.566;9.382;2023-02-03T05:26:18;100573.94;;;18.77;52.61
39449;BME280;25151;45.566;9.382;2023-02-03T05:29:19;100583.53;;;18.76;52.53
39449;BME280;25151;45.566;9.382;2023-02-03T05:32:19;100587.13;;;18.76;52.45
39449;BME280;25151;45.566;9.382;2023-02-03T05:35:20;100600.69;;;18.78;52.71
39449;BME280;25151;45.566;9.382;2023-02-03T05:38:21;100599.91;;;18.77;52.57
39449;BME280;25151;45.566;9.382;2023-02-03T05:41:21;100610.25;;;18.77;52.63
39449;BME280;25151;45.566;9.382;2023-02-03T05:44:40;100621.44;;;18.77;52.38
39449;BME280;25151;45.566;9.382;2023-02-03T05:47:41;100632.59;;;18.77;52.36
39449;BME280;25151;45.566;9.382;2023-02-03T05:50:42;100626.22;;;18.76;52.58
39449;BME280;25151;45.566;9.382;2023-02-03T05:53:42;100635.41;;;18.77;52.44
39449;BME280;25151;45.566;9.382;2023-02-03T05:56:43;100635.03;;;18.75;52.57
39449;BME280;25151;45.566;9.382;2023-02-03T05:59:44;100634.25;;;18.74;52.81
39449;BME280;25151;45.566;9.382;2023-02-03T06:02:44;100634.25;;;18.74;52.50
39449;BME280;25151;45.566;9.382;2023-02-03T06:05:45;100608.72;;;18.72;52.65
39449;BME280;25151;45.566;9.382;2023-02-03T06:08:45;100615.09;;;18.73;52.66
39449;BME280;25151;45.566;9.382;2023-02-03T06:11:46;100631.84;;;18.73;52.52
39449;BME280;25151;45.566;9.382;2023-02-03T06:14:47;100617.09;;;18.72;52.50
39449;BME280;25151;45.566;9.382;2023-02-03T06:17:48;100615.13;;;18.69;52.38
39449;BME280;25151;45.566;9.382;2023-02-03T06:20:49;100613.13;;;18.70;52.49
39449;BME280;25151;45.566;9.382;2023-02-03T06:23:50;100613.50;;;18.72;52.43
39449;BME280;25151;45.566;9.382;2023-02-03T06:26:50;100604.34;;;18.71;52.52
39449;BME280;25151;45.566;9.382;2023-02-03T06:29:51;100606.34;;;18.71;52.43
39449;BME280;25151;45.566;9.382;2023-02-03T06:32:52;100626.31;;;18.69;52.57
39449;BME280;25151;45.566;9.382;2023-02-03T06:35:53;100631.06;;;18.68;52.47
39449;BME280;25151;45.566;9.382;2023-02-03T06:38:54;100639.47;;;18.68;52.47
39449;BME280;25151;45.566;9.382;2023-02-03T06:41:55;100633.50;;;18.66;52.41
39449;BME280;25151;45.566;9.382;2023-02-03T06:44:55;100631.50;;;18.67;52.57
39449;BME280;25151;45.566;9.382;2023-02-03T06:47:56;100638.31;;;18.66;52.47
39449;BME280;25151;45.566;9.382;2023-02-03T06:50:57;100642.31;;;18.65;52.46
39449;BME280;25151;45.566;9.382;2023-02-03T06:53:57;100655.47;;;18.64;52.54
39449;BME280;25151;45.566;9.382;2023-02-03T06:56:58;100669.81;;;18.66;52.53
39449;BME280;25151;45.566;9.382;2023-02-03T06:59:59;100683.78;;;18.66;52.44
39449;BME280;25151;45.566;9.382;2023-02-03T07:02:59;100689.00;;;18.64;52.27
39449;BME280;25151;45.566;9.382;2023-02-03T07:06:02;100685.38;;;18.67;52.51
39449;BME280;25151;45.566;9.382;2023-02-03T07:09:04;100656.69;;;18.63;52.40
39449;BME280;25151;45.566;9.382;2023-02-03T07:12:07;100671.88;;;18.62;52.41
39449;BME280;25151;45.566;9.382;2023-02-03T07:15:09;100686.19;;;18.64;52.19
39449;BME280;25151;45.566;9.382;2023-02-03T07:18:10;100680.25;;;18.62;52.39
39449;BME280;25151;45.566;9.382;2023-02-03T07:21:11;100674.22;;;18.64;52.53
39449;BME280;25151;45.566;9.382;2023-02-03T07:24:11;100688.94;;;18.72;52.40
39449;BME280;25151;45.566;9.382;2023-02-03T07:27:12;100690.94;;;18.71;52.25
39449;BME280;25151;45.566;9.382;2023-02-03T07:30:13;100692.09;;;18.77;52.26
39449;BME280;25151;45.566;9.382;2023-02-03T07:33:14;100694.03;;;18.80;52.47
39449;BME280;25151;45.566;9.382;2023-02-03T07:36:14;100691.59;;;18.86;52.11
39449;BME280;25151;45.566;9.382;2023-02-03T07:39:15;100709.09;;;18.94;52.16
39449;BME280;25151;45.566;9.382;2023-02-03T07:42:16;100719.38;;;19.00;52.22
39449;BME280;25151;45.566;9.382;2023-02-03T07:45:17;100724.16;;;19.00;52.11
39449;BME280;25151;45.566;9.382;2023-02-03T07:48:17;100733.66;;;19.09;52.06
39449;BME280;25151;45.566;9.382;2023-02-03T07:51:18;100734.41;;;19.13;51.96
39449;BME280;25151;45.566;9.382;2023-02-03T07:54:20;100743.91;;;19.20;51.81
39449;BME280;25151;45.566;9.382;2023-02-03T07:57:21;100744.63;;;19.27;51.84
39449;BME280;25151;45.566;9.382;2023-02-03T08:00:23;100751.34;;;19.33;51.83
39449;BME280;25151;45.566;9.382;2023-02-03T08:03:24;100745.28;;;19.38;51.87
39449;BME280;25151;45.566;9.382;2023-02-03T08:06:25;100735.63;;;19.43;51.80
39449;BME280;25151;45.566;9.382;2023-02-03T08:09:25;100733.97;;;19.49;51.62
39449;BME280;25151;45.566;9.382;2023-02-03T08:12:26;100722.69;;;19.56;51.52
39449;BME280;25151;45.566;9.382;2023-02-03T08:15:27;100729.41;;;19.62;51.65
39449;BME280;25151;45.566;9.382;2023-02-03T08:18:29;100717.34;;;19.69;51.58
39449;BME280;25151;45.566;9.382;2023-02-03T08:21:30;100728.84;;;19.75;51.20
39449;BME280;25151;45.566;9.382;2023-02-03T08:24:31;100729.56;;;19.79;51.32
39449;BME280;25151;45.566;9.382;2023-02-03T08:27:32;100726.78;;;19.79;51.15
39449;BME280;25151;45.566;9.382;2023-02-03T08:30:33;100739.44;;;19.87;51.16
39449;BME280;25151;45.566;9.382;2023-02-03T08:33:34;100747.81;;;19.90;51.17
39449;BME280;25151;45.566;9.382;2023-02-03T08:36:34;100743.78;;;19.92;51.13
39449;BME280;25151;45.566;9.382;2023-02-03T08:39:38;100742.16;;;19.94;51.05
39449;BME280;25151;45.566;9.382;2023-02-03T08:42:39;100743.31;;;19.97;51.09
39449;BME280;25151;45.566;9.382;2023-02-03T08:45:40;100750.50;;;19.98;51.08
39449;BME280;25151;45.566;9.382;2023-02-03T08:48:41;100736.88;;;20.00;50.92
39449;BME280;25151;45.566;9.382;2023-02-03T08:51:43;100742.06;;;20.01;51.06
39449;BME280;25151;45.566;9.382;2023-02-03T08:54:45;100746.88;;;20.01;50.71
39449;BME280;25151;45.566;9.382;2023-02-03T08:57:46;100739.59;;;20.03;50.53
39449;BME280;25151;45.566;9.382;2023-02-03T09:00:47;100746.44;;;20.02;50.77
39449;BME280;25151;45.566;9.382;2023-02-03T09:03:50;100749.22;;;20.02;50.85
39449;BME280;25151;45.566;9.382;2023-02-03T09:06:52;100742.41;;;20.03;50.91
39449;BME280;25151;45.566;9.382;2023-02-03T09:09:53;100746.03;;;20.04;50.68
39449;BME280;25151;45.566;9.382;2023-02-03T09:12:55;100748.38;;;20.05;50.58
39449;BME280;25151;45.566;9.382;2023-02-03T09:15:59;100745.59;;;20.05;50.67
39449;BME280;25151;45.566;9.382;2023-02-03T09:19:00;100745.94;;;20.07;50.77
39449;BME280;25151;45.566;9.382;2023-02-03T09:22:01;100747.53;;;20.08;50.82
39449;BME280;25151;45.566;9.382;2023-02-03T09:25:04;100754.72;;;20.09;50.54
39449;BME280;25151;45.566;9.382;2023-02-03T09:28:05;100749.06;;;20.13;50.53
39449;BME280;25151;45.566;9.382;2023-02-03T09:31:12;100746.63;;;20.15;50.50
39449;BME280;25151;45.566;9.382;2023-02-03T09:34:25;100744.22;;;20.17;50.48
39449;BME280;25151;45.566;9.382;2023-02-03T09:37:28;100749.31;;;20.22;50.72
39449;BME280;25151;45.566;9.382;2023-02-03T09:40:32;100756.81;;;20.29;50.51
39449;BME280;25151;45.566;9.382;2023-02-03T09:46:57;100760.34;;;20.33;50.47
39449;BME280;25151;45.566;9.382;2023-02-03T09:50:06;100764.72;;;20.34;50.30
39449;BME280;25151;45.566;9.382;2023-02-03T09:53:34;100769.50;;;20.37;50.29
39449;BME280;25151;45.566;9.382;2023-02-03T09:56:38;100775.09;;;20.37;50.25
39449;BME280;25151;45.566;9.382;2023-02-03T09:59:39;100773.47;;;20.39;50.29
39449;BME280;25151;45.566;9.382;2023-02-03T10:12:29;100775.78;;;20.45;50.07
39449;BME280;25151;45.566;9.382;2023-02-03T10:15:47;100772.53;;;20.46;50.13
39449;BME280;25151;45.566;9.382;2023-02-03T10:18:56;100772.53;;;20.46;50.09
39449;BME280;25151;45.566;9.382;2023-02-03T10:21:59;100776.53;;;20.49;49.77
39449;BME280;25151;45.566;9.382;2023-02-03T10:28:20;100777.22;;;20.56;49.81
39449;BME280;25151;45.566;9.382;2023-02-03T10:31:25;100768.81;;;20.56;49.88
39449;BME280;25151;45.566;9.382;2023-02-03T10:34:29;100753.94;;;20.59;49.81
39449;BME280;25151;45.566;9.382;2023-02-03T10:37:34;100749.84;;;20.64;49.84
39449;BME280;25151;45.566;9.382;2023-02-03T10:40:36;100764.59;;;20.68;49.64
39449;BME280;25151;45.566;9.382;2023-02-03T10:43:41;100761.41;;;20.66;49.64
39449;BME280;25151;45.566;9.382;2023-02-03T10:46:47;100763.81;;;20.68;49.87
39449;BME280;25151;45.566;9.382;2023-02-03T10:49:50;100758.94;;;20.72;49.64
39449;BME280;25151;45.566;9.382;2023-02-03T10:53:46;100764.94;;;20.70;49.52
39449;BME280;25151;45.566;9.382;2023-02-03T10:56:39;100760.13;;;20.71;49.61
39449;BME280;25151;45.566;9.382;2023-02-03T10:59:43;100748.06;;;20.74;49.57
39449;BME280;25151;45.566;9.382;2023-02-03T11:02:56;100750.88;;;20.74;49.30
39449;BME280;25151;45.566;9.382;2023-02-03T11:06:13;100749.69;;;20.75;49.57
39449;BME280;25151;45.566;9.382;2023-02-03T11:09:34;100727.25;;;20.75;49.63
39449;BME280;25151;45.566;9.382;2023-02-03T11:12:35;100721.66;;;20.75;49.66
39449;BME280;25151;45.566;9.382;2023-02-03T11:15:36;100713.25;;;20.75;49.58
39449;BME280;25151;45.566;9.382;2023-02-03T11:21:46;100716.03;;;20.75;49.68
39449;BME280;25151;45.566;9.382;2023-02-03T11:24:48;100713.59;;;20.77;49.42
39449;BME280;25151;45.566;9.382;2023-02-03T11:27:49;100692.00;;;20.74;49.74
39449;BME280;25151;45.566;9.382;2023-02-03T11:30:56;100681.19;;;20.76;49.63
39449;BME280;25151;45.566;9.382;2023-02-03T11:34:13;100679.16;;;20.76;49.62
39449;BME280;25151;45.566;9.382;2023-02-03T11:37:36;100680.81;;;20.74;49.72
39449;BME280;25151;45.566;9.382;2023-02-03T11:40:37;100681.19;;;20.76;49.65
39449;BME280;25151;45.566;9.382;2023-02-03T11:43:40;100670.31;;;20.78;49.90
39449;BME280;25151;45.566;9.382;2023-02-03T11:46:41;100667.50;;;20.78;49.96
39449;BME280;25151;45.566;9.382;2023-02-03T11:49:55;100658.31;;;20.77;49.68
39449;BME280;25151;45.566;9.382;2023-02-03T11:53:06;100647.88;;;20.78;49.61
39449;BME280;25151;45.566;9.382;2023-02-03T11:59:39;100635.53;;;20.75;49.63
39449;BME280;25151;45.566;9.382;2023-02-03T12:06:22;100622.66;;;20.78;49.76
39449;BME280;25151;45.566;9.382;2023-02-03T12:09:43;100606.63;;;20.78;49.94
39449;BME280;25151;45.566;9.382;2023-02-03T12:16:26;100593.84;;;20.77;50.04
39449;BME280;25151;45.566;9.382;2023-02-03T12:23:33;100570.63;;;20.77;50.08
39449;BME280;25151;45.566;9.382;2023-02-03T12:26:55;100555.84;;;20.76;49.92
39449;BME280;25151;45.566;9.382;2023-02-03T12:30:32;100545.50;;;20.73;50.28
39449;BME280;25151;45.566;9.382;2023-02-03T12:33:49;100545.88;;;20.75;50.14
39449;BME280;25151;45.566;9.382;2023-02-03T12:40:27;100527.88;;;20.73;50.05
39449;BME280;25151;45.566;9.382;2023-02-03T12:43:42;100529.47;;;20.74;50.23
39449;BME280;25151;45.566;9.382;2023-02-03T12:46:59;100520.72;;;20.72;50.30
39449;BME280;25151;45.566;9.382;2023-02-03T12:50:08;100499.94;;;20.69;50.21
39449;BME280;25151;45.566;9.382;2023-02-03T12:56:25;100496.34;;;20.69;49.94
39449;BME280;25151;45.566;9.382;2023-02-03T12:59:29;100494.78;;;20.68;49.98
39449;BME280;25151;45.566;9.382;2023-02-03T13:02:41;100495.91;;;20.70;50.19
39449;BME280;25151;45.566;9.382;2023-02-03T13:06:09;100500.72;;;20.70;50.27
39449;BME280;25151;45.566;9.382;2023-02-03T13:09:24;100491.19;;;20.67;50.28
39449;BME280;25151;45.566;9.382;2023-02-03T13:12:30;100486.00;;;20.66;50.40
39449;BME280;25151;45.566;9.382;2023-02-03T13:15:37;100463.25;;;20.63;50.00
39449;BME280;25151;45.566;9.382;2023-02-03T13:18:46;100474.38;;;20.67;50.32
39449;BME280;25151;45.566;9.382;2023-02-03T13:21:50;100460.44;;;20.63;50.10
39449;BME280;25151;45.566;9.382;2023-02-03T13:32:37;100457.56;;;20.67;50.32
39449;BME280;25151;45.566;9.382;2023-02-03T13:36:13;100445.53;;;20.67;50.09
39449;BME280;25151;45.566;9.382;2023-02-03T13:42:58;100436.78;;;20.65;50.32
39449;BME280;25151;45.566;9.382;2023-02-03T13:46:25;100427.22;;;20.62;50.26
39449;BME280;25151;45.566;9.382;2023-02-03T13:49:33;100432.06;;;20.61;50.36
39449;BME280;25151;45.566;9.382;2023-02-03T13:52:46;100434.84;;;20.61;50.57
39449;BME280;25151;45.566;9.382;2023-02-03T13:55:58;100432.06;;;20.61;50.58
39449;BME280;25151;45.566;9.382;2023-02-03T14:05:44;100418.56;;;20.56;50.41
39449;BME280;25151;45.566;9.382;2023-02-03T14:08:57;100421.72;;;20.58;50.61
39449;BME280;25151;45.566;9.382;2023-02-03T14:15:29;100418.56;;;20.56;50.71
39449;BME280;25151;45.566;9.382;2023-02-03T14:18:45;100413.75;;;20.57;50.62
39449;BME280;25151;45.566;9.382;2023-02-03T14:22:15;100414.97;;;20.56;50.84
39449;BME280;25151;45.566;9.382;2023-02-03T14:25:19;100400.19;;;20.55;50.83
39449;BME280;25151;45.566;9.382;2023-02-03T14:28:36;100400.19;;;20.55;50.78
39449;BME280;25151;45.566;9.382;2023-02-03T14:32:06;100377.84;;;20.52;50.87
39449;BME280;25151;45.566;9.382;2023-02-03T14:38:40;100396.72;;;20.48;50.89
39449;BME280;25151;45.566;9.382;2023-02-03T14:41:57;100389.53;;;20.47;51.04
39449;BME280;25151;45.566;9.382;2023-02-03T14:49:24;100386.84;;;20.43;50.69
39449;BME280;25151;45.566;9.382;2023-02-03T14:56:16;100385.31;;;20.38;51.05
39449;BME280;25151;45.566;9.382;2023-02-03T14:59:35;100380.50;;;20.39;50.98
39449;BME280;25151;45.566;9.382;2023-02-03T15:06:51;100377.69;;;20.39;50.96
39449;BME280;25151;45.566;9.382;2023-02-03T15:10:01;100367.38;;;20.36;50.94
39449;BME280;25151;45.566;9.382;2023-02-03T15:16:35;100368.56;;;20.35;51.08
39449;BME280;25151;45.566;9.382;2023-02-03T15:19:43;100358.59;;;20.34;50.97
39449;BME280;25151;45.566;9.382;2023-02-03T15:22:57;100356.25;;;20.32;51.15
39449;BME280;25151;45.566;9.382;2023-02-03T15:26:16;100356.66;;;20.31;51.29
39449;BME280;25151;45.566;9.382;2023-02-03T15:29:28;100343.91;;;20.30;50.89
39449;BME280;25151;45.566;9.382;2023-02-03T15:32:40;100347.94;;;20.29;51.06
39449;BME280;25151;45.566;9.382;2023-02-03T15:35:52;100361.94;;;20.29;51.11
39449;BME280;25151;45.566;9.382;2023-02-03T15:39:18;100361.56;;;20.27;50.97
39449;BME280;25151;45.566;9.382;2023-02-03T15:52:15;100356.84;;;20.24;50.96
39449;BME280;25151;45.566;9.382;2023-02-03T15:55:46;100356.84;;;20.24;50.85
39449;BME280;25151;45.566;9.382;2023-02-03T15:59:04;100360.06;;;20.22;50.68
39449;BME280;25151;45.566;9.382;2023-02-03T16:02:33;100354.91;;;20.21;51.00
39449;BME280;25151;45.566;9.382;2023-02-03T16:05:40;100342.47;;;20.22;50.96
39449;BME280;25151;45.566;9.382;2023-02-03T16:08:51;100346.50;;;20.21;51.11
39449;BME280;25151;45.566;9.382;2023-02-03T16:15:31;100335.22;;;20.24;50.95
39449;BME280;25151;45.566;9.382;2023-02-03T16:18:53;100333.75;;;20.20;51.21
39449;BME280;25151;45.566;9.382;2023-02-03T16:21:58;100338.53;;;20.19;51.01
39449;BME280;25151;45.566;9.382;2023-02-03T16:25:25;100336.53;;;20.20;50.76
39449;BME280;25151;45.566;9.382;2023-02-03T16:28:27;100344.56;;;20.18;50.99
39449;BME280;25151;45.566;9.382;2023-02-03T16:31:48;100352.97;;;20.18;51.21
39449;BME280;25151;45.566;9.382;2023-02-03T16:35:09;100364.97;;;20.18;51.02
39449;BME280;25151;45.566;9.382;2023-02-03T16:38:32;100360.59;;;20.17;51.03
39449;BME280;25151;45.566;9.382;2023-02-03T16:41:58;100356.22;;;20.16;50.96
39449;BME280;25151;45.566;9.382;2023-02-03T16:45:21;100359.00;;;20.16;51.15
39449;BME280;25151;45.566;9.382;2023-02-03T16:48:42;100354.28;;;20.13;51.10
39449;BME280;25151;45.566;9.382;2023-02-03T16:52:04;100352.34;;;20.10;50.98
39449;BME280;25151;45.566;9.382;2023-02-03T16:55:09;100350.69;;;20.12;51.17
39449;BME280;25151;45.566;9.382;2023-02-03T16:58:12;100345.09;;;20.12;51.04
39449;BME280;25151;45.566;9.382;2023-02-03T17:01:16;100335.13;;;20.11;51.19
39449;BME280;25151;45.566;9.382;2023-02-03T17:04:21;100339.13;;;20.10;51.11
39449;BME280;25151;45.566;9.382;2023-02-03T17:07:27;100337.09;;;20.11;51.13
39449;BME280;25151;45.566;9.382;2023-02-03T17:10:44;100353.56;;;20.09;51.03
39449;BME280;25151;45.566;9.382;2023-02-03T17:13:53;100349.97;;;20.08;51.22
39449;BME280;25151;45.566;9.382;2023-02-03T17:16:59;100352.41;;;20.06;50.85
39449;BME280;25151;45.566;9.382;2023-02-03T17:20:09;100349.97;;;20.08;51.25
39449;BME280;25151;45.566;9.382;2023-02-03T17:23:20;100345.94;;;20.09;51.13
39449;BME280;25151;45.566;9.382;2023-02-03T17:26:32;100343.94;;;20.10;51.35
39449;BME280;25151;45.566;9.382;2023-02-03T17:29:42;100344.38;;;20.08;51.36
39449;BME280;25151;45.566;9.382;2023-02-03T17:32:51;100336.41;;;20.07;51.39
39449;BME280;25151;45.566;9.382;2023-02-03T17:36:00;100341.59;;;20.08;51.41
39449;BME280;25151;45.566;9.382;2023-02-03T17:39:11;100344.72;;;20.10;51.53
39449;BME280;25151;45.566;9.382;2023-02-03T17:42:20;100348.38;;;20.07;51.49
39449;BME280;25151;45.566;9.382;2023-02-03T17:45:32;100348.38;;;20.07;51.73
39449;BME280;25151;45.566;9.382;2023-02-03T17:48:38;100348.38;;;20.07;51.86
39449;BME280;25151;45.566;9.382;2023-02-03T17:51:42;100361.97;;;20.09;51.76
39449;BME280;25151;45.566;9.382;2023-02-03T17:54:47;100357.22;;;20.06;51.84
39449;BME280;25151;45.566;9.382;2023-02-03T17:57:59;100359.69;;;20.04;52.25
39449;BME280;25151;45.566;9.382;2023-02-03T18:01:10;100358.88;;;20.03;52.47
39449;BME280;25151;45.566;9.382;2023-02-03T18:04:24;100368.50;;;20.02;52.31